createdAt,value
2018-11-21T00:02:23.710Z,34.37
2018-11-21T00:04:51.991Z,30.73
2018-11-21T00:07:20.233Z,31.67
2018-11-21T00:09:48.485Z,31.50
2018-11-21T00:12:16.755Z,32.47
2018-11-21T00:14:44.983Z,33.83
2018-11-21T00:17:13.255Z,31.50
2018-11-21T00:19:42.035Z,32.93
2018-11-21T00:22:10.308Z,34.93
2018-11-21T00:24:38.500Z,29.97
2018-11-21T00:27:06.767Z,31.93
2018-11-21T00:29:35.012Z,31.80
2018-11-21T00:32:03.198Z,30.93
2018-11-21T00:34:31.428Z,33.70
2018-11-21T00:36:59.640Z,29.73
2018-11-21T00:39:27.873Z,32.50
2018-11-21T00:41:56.410Z,34.10
2018-11-21T00:44:24.653Z,31.13
2018-11-21T00:46:52.909Z,33.00
2018-11-21T00:49:21.215Z,34.87
2018-11-21T00:51:49.507Z,32.53
2018-11-21T00:54:17.737Z,33.43
2018-11-21T00:56:46.276Z,34.37
2018-11-21T00:59:14.596Z,35.47
2018-11-21T01:01:42.815Z,33.47
2018-11-21T01:04:11.066Z,34.57
2018-11-21T01:06:39.291Z,34.30
2018-11-21T01:09:07.708Z,35.43
2018-11-21T01:11:35.982Z,34.77
2018-11-21T01:14:04.258Z,35.17
2018-11-21T01:16:32.543Z,36.77
2018-11-21T01:19:00.772Z,35.47
2018-11-21T01:21:29.001Z,36.10
2018-11-21T01:23:57.241Z,34.37
2018-11-21T01:26:25.502Z,34.70
2018-11-21T01:28:53.790Z,35.43
2018-11-21T01:31:22.000Z,36.10
2018-11-21T01:33:50.280Z,34.80
2018-11-21T01:36:18.755Z,34.07
2018-11-21T01:38:47.133Z,36.53
2018-11-21T01:41:15.353Z,35.70
2018-11-21T01:43:43.572Z,33.20
2018-11-21T01:46:11.801Z,37.13
2018-11-21T01:48:40.031Z,36.60
2018-11-21T01:51:08.292Z,35.33
2018-11-21T01:53:36.615Z,35.40
2018-11-21T01:56:04.909Z,35.50
2018-11-21T01:58:33.164Z,35.47
2018-11-21T02:01:01.409Z,36.23
2018-11-21T02:03:29.619Z,35.50
2018-11-21T02:06:13.599Z,34.97
2018-11-21T02:08:41.850Z,33.17
2018-11-21T02:11:11.136Z,35.63
2018-11-21T02:13:39.426Z,35.80
2018-11-21T02:16:07.713Z,36.83
2018-11-21T02:18:35.937Z,33.47
2018-11-21T02:21:04.202Z,34.17
2018-11-21T02:23:32.442Z,34.43
2018-11-21T02:26:00.720Z,35.80
2018-11-21T02:28:29.082Z,34.83
2018-11-21T02:30:57.312Z,36.03
2018-11-21T02:33:25.549Z,34.97
2018-11-21T02:35:54.143Z,34.00
2018-11-21T02:38:22.379Z,32.83
2018-11-21T02:40:50.611Z,34.90
2018-11-21T02:43:18.880Z,36.90
2018-11-21T02:45:47.134Z,34.27
2018-11-21T02:48:15.394Z,32.87
2018-11-21T02:50:43.768Z,34.17
2018-11-21T02:53:12.130Z,34.53
2018-11-21T02:55:40.373Z,32.80
2018-11-21T02:58:08.630Z,31.00
2018-11-21T03:00:36.836Z,32.67
2018-11-21T03:03:05.103Z,34.60
2018-11-21T03:05:33.547Z,33.63
2018-11-21T03:08:01.994Z,31.70
2018-11-21T03:10:30.260Z,33.33
2018-11-21T03:12:58.540Z,32.30
2018-11-21T03:15:26.818Z,32.47
2018-11-21T03:17:55.135Z,32.80
2018-11-21T03:20:23.387Z,33.63
2018-11-21T03:22:51.718Z,31.57
2018-11-21T03:25:20.011Z,32.93
2018-11-21T03:27:48.315Z,33.40
2018-11-21T03:30:16.540Z,32.73
2018-11-21T03:32:45.549Z,30.83
2018-11-21T03:35:13.952Z,31.30
2018-11-21T03:37:42.181Z,34.20
2018-11-21T03:40:11.805Z,32.80
2018-11-21T03:42:40.402Z,35.23
2018-11-21T03:45:09.742Z,36.47
2018-11-21T03:47:37.948Z,34.27
2018-11-21T03:50:08.119Z,36.23
2018-11-21T03:52:36.507Z,33.50
2018-11-21T03:55:05.307Z,36.10
2018-11-21T03:57:33.601Z,34.57
2018-11-21T04:00:01.878Z,35.50
2018-11-21T04:02:30.113Z,33.93
2018-11-21T04:04:58.420Z,34.63
2018-11-21T04:07:26.642Z,33.17
2018-11-21T04:09:54.924Z,33.57
2018-11-21T04:12:23.234Z,34.83
2018-11-21T04:14:51.502Z,32.93
2018-11-21T04:17:19.754Z,32.83
2018-11-21T04:19:47.968Z,32.97
2018-11-21T04:22:16.219Z,32.67
2018-11-21T04:24:44.421Z,34.67
2018-11-21T04:27:12.664Z,31.57
2018-11-21T04:29:40.892Z,33.47
2018-11-21T04:32:09.110Z,34.17
2018-11-21T04:34:39.895Z,32.00
2018-11-21T04:37:08.262Z,32.67
2018-11-21T04:39:36.466Z,33.10
2018-11-21T04:42:04.723Z,32.63
2018-11-21T04:44:33.145Z,34.60
2018-11-21T04:47:01.361Z,30.50
2018-11-21T04:49:29.557Z,31.87
2018-11-21T04:51:58.156Z,32.57
2018-11-21T04:54:26.423Z,34.27
2018-11-21T04:56:54.645Z,32.13
2018-11-21T04:59:22.904Z,32.63
2018-11-21T05:01:51.151Z,34.30
2018-11-21T05:04:19.381Z,33.37
2018-11-21T05:06:47.784Z,31.60
2018-11-21T05:09:15.993Z,32.33
2018-11-21T05:11:44.207Z,31.53
2018-11-21T05:14:12.452Z,33.77
2018-11-21T05:16:40.792Z,33.80
2018-11-21T05:19:09.338Z,34.07
2018-11-21T05:21:37.605Z,32.80
2018-11-21T05:24:05.878Z,33.83
2018-11-21T05:26:34.225Z,32.57
2018-11-21T05:29:02.427Z,33.50
2018-11-21T05:31:48.932Z,33.03
2018-11-21T05:34:17.192Z,32.13
2018-11-21T05:36:45.502Z,31.60
2018-11-21T05:39:13.826Z,31.90
2018-11-21T05:41:44.745Z,32.43
2018-11-21T05:44:12.965Z,32.80
2018-11-21T05:46:41.232Z,34.60
2018-11-21T05:49:09.473Z,33.38
2018-11-21T05:51:43.673Z,32.37
2018-11-21T05:54:12.014Z,33.43
2018-11-21T05:56:40.346Z,31.43
2018-11-21T05:59:08.689Z,31.57
2018-11-21T06:01:37.022Z,34.00
2018-11-21T06:04:06.285Z,34.40
2018-11-21T06:06:34.590Z,32.53
2018-11-21T06:09:02.977Z,31.57
2018-11-21T06:11:31.215Z,33.50
2018-11-21T06:13:59.627Z,33.10
2018-11-21T06:16:27.988Z,32.40
2018-11-21T06:18:56.282Z,32.37
2018-11-21T06:21:24.559Z,32.03
2018-11-21T06:23:56.321Z,31.33
2018-11-21T06:26:24.634Z,31.27
2018-11-21T06:28:52.874Z,33.53
2018-11-21T06:31:21.351Z,32.07
2018-11-21T06:33:49.582Z,33.50
2018-11-21T06:36:17.847Z,31.90
2018-11-21T06:38:46.113Z,34.85
2018-11-21T06:41:14.362Z,33.27
2018-11-21T06:43:42.633Z,33.43
2018-11-21T06:46:11.753Z,31.73
2018-11-21T06:48:39.990Z,32.30
2018-11-21T06:51:08.235Z,33.83
2018-11-21T06:53:36.515Z,33.97
2018-11-21T06:56:04.783Z,34.43
2018-11-21T06:58:33.024Z,33.67
2018-11-21T07:01:01.394Z,32.57
2018-11-21T07:03:29.680Z,31.70
2018-11-21T07:05:57.903Z,32.67
2018-11-21T07:08:26.453Z,34.03
2018-11-21T07:10:54.713Z,33.83
2018-11-21T07:13:22.981Z,33.67
2018-11-21T07:15:51.370Z,33.87
2018-11-21T07:18:19.631Z,34.90
2018-11-21T07:20:47.930Z,33.03
2018-11-21T07:23:16.205Z,33.23
2018-11-21T07:25:44.485Z,33.40
2018-11-21T07:28:13.137Z,35.70
2018-11-21T07:30:40.961Z,34.20
2018-11-21T07:33:09.222Z,32.30
2018-11-21T07:35:37.484Z,34.50
2018-11-21T07:38:05.964Z,33.60
2018-11-21T07:40:34.210Z,30.93
2018-11-21T07:43:02.531Z,33.17
2018-11-21T07:45:31.337Z,37.23
2018-11-21T07:47:59.597Z,35.93
2018-11-21T07:50:27.910Z,32.70
2018-11-21T07:52:56.146Z,32.87
2018-11-21T07:55:24.368Z,34.13
2018-11-21T07:57:54.983Z,31.27
2018-11-21T08:00:51.095Z,31.97
2018-11-21T08:03:19.750Z,32.57
2018-11-21T08:05:53.530Z,34.70
2018-11-21T08:08:43.749Z,32.00
2018-11-21T08:11:43.278Z,31.30
2018-11-21T08:14:40.032Z,30.23
2018-11-21T08:17:26.074Z,32.40
2018-11-21T08:20:25.371Z,31.33
2018-11-21T08:23:05.698Z,31.37
2018-11-21T08:25:56.108Z,29.57
2018-11-21T08:28:33.614Z,30.33
2018-11-21T08:31:02.150Z,31.27
2018-11-21T08:33:34.062Z,30.57
2018-11-21T08:35:59.412Z,29.93
2018-11-21T08:38:27.725Z,31.03
2018-11-21T08:40:55.917Z,29.30
2018-11-21T08:43:24.183Z,30.13
2018-11-21T08:45:52.490Z,27.60
2018-11-21T08:48:21.388Z,29.60
2018-11-21T08:50:49.709Z,29.70
2018-11-21T08:53:18.007Z,29.33
2018-11-21T08:55:46.540Z,30.50
2018-11-21T08:58:14.765Z,28.37
2018-11-21T09:00:43.087Z,28.00
2018-11-21T09:03:11.386Z,28.73
2018-11-21T09:05:39.575Z,28.83
2018-11-21T09:08:08.159Z,29.93
2018-11-21T09:13:03.959Z,29.03
2018-11-21T09:15:32.178Z,28.47
2018-11-21T09:18:00.407Z,27.90
2018-11-21T09:20:28.633Z,28.30
2018-11-21T09:22:56.884Z,27.33
2018-11-21T09:25:25.119Z,29.00
2018-11-21T09:27:53.360Z,27.10
2018-11-21T09:30:22.385Z,27.93
2018-11-21T09:32:52.587Z,28.60
2018-11-21T09:35:20.385Z,25.90
2018-11-21T09:37:48.715Z,27.53
2018-11-21T09:40:18.374Z,27.17
2018-11-21T09:42:47.837Z,26.17
2018-11-21T09:45:17.573Z,28.13
2018-11-21T09:47:45.810Z,27.43
2018-11-21T09:50:16.429Z,28.30
2018-11-21T09:52:44.749Z,25.90
2018-11-21T09:55:13.329Z,25.97
2018-11-21T09:57:41.643Z,27.27
2018-11-21T10:00:47.993Z,26.87
2018-11-21T10:03:21.460Z,26.30
2018-11-21T10:05:52.192Z,28.20
2018-11-21T10:09:10.669Z,27.07
2018-11-21T10:11:38.954Z,26.83
2018-11-21T10:14:07.230Z,25.77
2018-11-21T10:16:35.572Z,23.97
2018-11-21T10:19:04.131Z,25.30
2018-11-21T10:21:33.674Z,25.80
2018-11-21T10:24:01.966Z,25.40
2018-11-21T10:26:30.248Z,25.13
2018-11-21T10:28:58.479Z,25.07
2018-11-21T10:31:26.782Z,24.20
2018-11-21T10:33:55.027Z,23.80
2018-11-21T10:36:23.247Z,24.57
2018-11-21T10:38:51.486Z,22.70
2018-11-21T10:41:19.692Z,23.90
2018-11-21T10:43:47.932Z,25.20
2018-11-21T10:46:21.015Z,23.80
2018-11-21T10:48:49.316Z,22.60
2018-11-21T10:51:17.607Z,24.77
2018-11-21T10:53:45.859Z,24.97
2018-11-21T10:56:14.170Z,23.50
2018-11-21T10:58:42.426Z,23.40
2018-11-21T11:01:14.010Z,24.17
2018-11-21T11:03:48.161Z,24.23
2018-11-21T11:06:47.580Z,24.20
2018-11-21T11:09:35.043Z,23.97
2018-11-21T11:12:21.026Z,23.67
2018-11-21T11:15:08.356Z,23.63
2018-11-21T11:18:13.642Z,22.53
2018-11-21T11:20:59.507Z,24.13
2018-11-21T11:23:45.419Z,23.33
2018-11-21T11:26:31.532Z,22.63
2018-11-21T11:29:11.351Z,22.73
2018-11-21T11:31:57.630Z,23.03
2018-11-21T11:34:36.677Z,24.17
2018-11-21T11:37:25.349Z,23.20
2018-11-21T11:40:18.785Z,22.07
2018-11-21T11:43:05.046Z,22.17
2018-11-21T11:45:55.366Z,22.57
2018-11-21T11:48:37.741Z,21.13
2018-11-21T11:51:28.253Z,21.30
2018-11-21T11:54:21.897Z,22.23
2018-11-21T11:57:00.508Z,21.30
2018-11-21T11:59:53.822Z,22.47
2018-11-21T12:02:43.606Z,22.43
2018-11-21T12:05:49.303Z,19.87
2018-11-21T12:08:33.323Z,21.77
2018-11-21T12:11:20.746Z,20.43
2018-11-21T12:14:07.017Z,21.50
2018-11-21T12:16:47.534Z,21.17
2018-11-21T12:19:36.500Z,21.30
2018-11-21T12:22:16.393Z,22.37
2018-11-21T12:25:02.598Z,21.57
2018-11-21T12:27:50.086Z,22.27
2018-11-21T12:30:43.847Z,21.50
2018-11-21T12:33:30.136Z,22.13
2018-11-21T12:36:16.172Z,20.37
2018-11-21T12:39:02.405Z,20.73
2018-11-21T12:41:53.124Z,20.30
2018-11-21T12:44:58.368Z,21.47
2018-11-21T12:47:43.861Z,21.93
2018-11-21T12:50:31.252Z,18.67
2018-11-21T12:53:24.753Z,18.77
2018-11-21T12:56:15.179Z,19.67
2018-11-21T12:58:53.524Z,18.83
2018-11-21T13:01:30.208Z,20.30
2018-11-21T13:04:17.620Z,19.33
2018-11-21T13:06:58.723Z,19.87
2018-11-21T13:09:44.785Z,21.07
2018-11-21T13:12:35.137Z,20.77
2018-11-21T13:15:28.207Z,20.77
2018-11-21T13:18:14.541Z,18.63
2018-11-21T13:20:55.612Z,18.97
2018-11-21T13:23:39.697Z,20.20
2018-11-21T13:26:31.161Z,20.23
2018-11-21T13:29:18.568Z,20.53
2018-11-21T13:32:02.577Z,20.50
2018-11-21T13:34:49.124Z,20.73
2018-11-21T13:37:34.309Z,19.47
2018-11-21T13:40:13.509Z,19.93
2018-11-21T13:43:07.051Z,20.00
2018-11-21T13:45:53.109Z,19.80
2018-11-21T13:48:38.834Z,20.60
2018-11-21T13:51:28.958Z,19.33
2018-11-21T13:54:17.530Z,21.00
2018-11-21T13:56:46.846Z,21.50
2018-11-21T13:59:15.084Z,21.43
2018-11-21T14:01:43.368Z,23.30
2018-11-21T14:04:11.619Z,20.93
2018-11-21T14:06:39.852Z,21.90
2018-11-21T14:09:10.611Z,22.00
2018-11-21T14:11:39.084Z,21.30
2018-11-21T14:14:09.280Z,22.60
2018-11-21T14:16:37.719Z,20.73
2018-11-21T14:19:06.081Z,22.03
2018-11-21T14:21:34.359Z,22.60
2018-11-21T14:24:02.717Z,21.00
2018-11-21T14:26:30.949Z,22.53
2018-11-21T14:28:59.726Z,21.50
2018-11-21T14:31:28.001Z,21.37
2018-11-21T14:33:56.386Z,21.40
2018-11-21T14:36:24.677Z,22.73
2018-11-21T14:38:52.954Z,21.30
2018-11-21T14:41:21.279Z,21.63
2018-11-21T14:43:49.549Z,22.00
2018-11-21T14:46:17.926Z,21.43
2018-11-21T14:48:46.544Z,19.97
2018-11-21T14:51:14.828Z,19.87
2018-11-21T14:53:43.366Z,19.60
2018-11-21T14:56:11.577Z,19.93
2018-11-21T14:58:39.933Z,20.93
2018-11-21T15:01:10.591Z,21.00
2018-11-21T15:03:38.860Z,21.23
2018-11-21T15:06:07.271Z,21.70
2018-11-21T15:08:35.537Z,20.33
2018-11-21T15:11:08.948Z,22.27
2018-11-21T15:13:37.197Z,22.27
2018-11-21T15:16:05.602Z,21.67
2018-11-21T15:18:34.359Z,21.83
2018-11-21T15:21:02.654Z,21.63
2018-11-21T15:23:30.943Z,21.53
2018-11-21T15:25:59.228Z,22.00
2018-11-21T15:28:29.531Z,22.00
2018-11-21T15:31:15.825Z,22.33
2018-11-21T15:33:44.097Z,22.50
2018-11-21T15:36:12.368Z,23.43
2018-11-21T15:38:40.910Z,23.23
2018-11-21T15:41:09.222Z,22.27
2018-11-21T15:43:37.658Z,24.57
2018-11-21T15:46:07.398Z,21.37
2018-11-21T15:48:36.014Z,21.97
2018-11-21T15:54:34.289Z,20.87
2018-11-21T15:57:01.581Z,19.83
2018-11-21T15:59:30.056Z,21.07
2018-11-21T16:01:58.324Z,22.17
2018-11-21T16:04:28.601Z,22.37
2018-11-21T16:06:56.938Z,23.33
2018-11-21T16:09:25.201Z,22.87
2018-11-21T16:11:53.475Z,24.37
2018-11-21T16:14:21.943Z,25.07
2018-11-21T16:16:50.318Z,24.10
2018-11-21T16:19:21.691Z,26.77
2018-11-21T16:21:50.137Z,24.10
2018-11-21T16:24:18.353Z,27.20
2018-11-21T16:26:46.733Z,27.77
2018-11-21T16:29:15.042Z,27.87
2018-11-21T16:31:43.591Z,28.90
2018-11-21T16:34:11.845Z,30.47
2018-11-21T16:36:40.182Z,29.23
2018-11-21T16:39:10.588Z,28.60
2018-11-21T16:41:38.839Z,30.00
2018-11-21T16:44:07.379Z,31.63
2018-11-21T16:46:35.608Z,31.17
2018-11-21T16:49:04.167Z,30.87
2018-11-21T16:51:32.510Z,32.53
2018-11-21T16:54:00.936Z,30.70
2018-11-21T16:56:29.233Z,31.57
2018-11-21T16:58:58.033Z,31.23
2018-11-21T17:01:26.270Z,31.97
2018-11-21T17:03:54.528Z,31.67
2018-11-21T17:06:22.865Z,38.17
2018-11-21T17:08:51.109Z,32.03
2018-11-21T17:11:19.383Z,30.70
2018-11-21T17:13:47.894Z,32.10
2018-11-21T17:16:16.121Z,33.20
2018-11-21T17:18:44.369Z,31.77
2018-11-21T17:21:12.675Z,35.40
2018-11-21T17:23:40.915Z,36.10
2018-11-21T17:26:09.243Z,32.77
2018-11-21T17:28:37.483Z,36.47
2018-11-21T17:31:05.717Z,37.23
2018-11-21T17:33:33.978Z,34.43
2018-11-21T17:36:02.271Z,34.83
2018-11-21T17:38:33.735Z,34.83
2018-11-21T17:40:58.941Z,35.07
2018-11-21T17:43:27.223Z,35.67
2018-11-21T17:45:55.490Z,35.37
2018-11-21T17:48:23.799Z,34.97
2018-11-21T17:50:52.123Z,35.43
2018-11-21T17:53:20.461Z,35.10
2018-11-21T17:55:48.738Z,35.63
2018-11-21T17:58:17.089Z,35.83
2018-11-21T18:00:45.447Z,41.60
2018-11-21T18:03:13.709Z,36.17
2018-11-21T18:05:42.636Z,34.07
2018-11-21T18:08:10.990Z,35.10
2018-11-21T18:10:40.698Z,34.97
2018-11-21T18:13:08.966Z,35.60
2018-11-21T18:15:38.385Z,36.73
2018-11-21T18:18:06.723Z,36.50
2018-11-21T18:20:34.947Z,35.43
2018-11-21T18:23:03.539Z,34.77
2018-11-21T18:25:42.730Z,36.00
2018-11-21T18:28:10.988Z,36.93
2018-11-21T18:30:39.371Z,36.30
2018-11-21T18:33:08.042Z,38.37
2018-11-21T18:35:35.988Z,35.87
2018-11-21T18:38:04.360Z,35.80
2018-11-21T18:40:32.751Z,36.57
2018-11-21T18:43:01.070Z,37.70
2018-11-21T18:45:33.000Z,37.87
2018-11-21T18:48:01.291Z,40.95
2018-11-21T18:50:29.592Z,37.80
2018-11-21T18:52:59.012Z,38.77
2018-11-21T18:55:32.233Z,38.57
2018-11-21T18:58:28.250Z,40.03
2018-11-21T19:00:56.810Z,37.60
2018-11-21T19:03:25.185Z,37.90
2018-11-21T19:05:53.664Z,38.63
2018-11-21T19:08:22.122Z,39.80
2018-11-21T19:10:50.996Z,37.87
2018-11-21T19:13:19.598Z,40.33
2018-11-21T19:15:47.894Z,38.90
2018-11-21T19:18:16.096Z,42.17
2018-11-21T19:20:44.405Z,39.63
2018-11-21T19:23:12.658Z,38.67
2018-11-21T19:25:40.907Z,39.67
2018-11-21T19:28:09.962Z,39.90
2018-11-21T19:30:40.105Z,38.93
2018-11-21T19:33:08.983Z,38.40
2018-11-21T19:35:36.648Z,40.97
2018-11-21T19:38:05.114Z,38.70
2018-11-21T19:40:33.394Z,38.77
2018-11-21T19:43:01.870Z,41.40
2018-11-21T19:45:30.143Z,39.63
2018-11-21T19:47:58.525Z,41.98
2018-11-21T19:50:26.807Z,39.43
2018-11-21T19:52:55.520Z,46.63
2018-11-21T19:55:25.795Z,51.58
2018-11-21T19:57:54.048Z,51.90
2018-11-21T20:00:32.409Z,42.03
2018-11-21T20:03:00.783Z,38.93
2018-11-21T20:05:29.058Z,41.50
2018-11-21T20:08:00.462Z,40.50
2018-11-21T20:10:28.695Z,42.10
2018-11-21T20:12:58.444Z,39.10
2018-11-21T20:15:27.752Z,39.43
2018-11-21T20:17:58.139Z,42.87
2018-11-21T20:20:27.242Z,41.03
2018-11-21T20:22:55.527Z,40.80
2018-11-21T20:25:24.703Z,40.40
2018-11-21T20:27:55.987Z,39.87
2018-11-21T20:30:29.249Z,41.10
2018-11-21T20:32:57.629Z,40.97
2018-11-21T20:35:25.828Z,40.93
2018-11-21T20:37:54.460Z,40.33
2018-11-21T20:40:33.503Z,39.57
2018-11-21T20:43:01.813Z,38.70
2018-11-21T20:45:30.208Z,39.63
2018-11-21T20:47:59.293Z,38.93
2018-11-21T20:50:27.593Z,36.90
2018-11-21T20:52:56.053Z,40.43
2018-11-21T20:55:25.766Z,40.20
2018-11-21T20:57:54.237Z,39.47
2018-11-21T21:00:24.244Z,42.67
2018-11-21T21:02:52.495Z,40.07
2018-11-21T21:05:22.943Z,40.10
2018-11-21T21:07:51.220Z,41.87
2018-11-21T21:10:43.757Z,41.47
2018-11-21T21:13:12.260Z,41.60
2018-11-21T21:15:40.582Z,41.93
2018-11-21T21:18:08.940Z,41.83
2018-11-21T21:20:37.294Z,39.30
2018-11-21T21:23:05.725Z,42.10
2018-11-21T21:25:34.016Z,42.07
2018-11-21T21:28:02.350Z,39.60
2018-11-21T21:30:31.971Z,41.63
2018-11-21T21:33:00.343Z,41.43
2018-11-21T21:35:29.774Z,40.70
2018-11-21T21:37:58.084Z,40.27
2018-11-21T21:40:26.427Z,39.00
2018-11-21T21:42:55.908Z,39.77
2018-11-21T21:45:25.561Z,39.00
2018-11-21T21:47:54.144Z,40.67
2018-11-21T21:50:24.095Z,40.43
2018-11-21T21:52:52.366Z,39.80
2018-11-21T21:55:23.117Z,41.60
2018-11-21T21:57:53.313Z,39.70
2018-11-21T22:00:22.994Z,39.37
2018-11-21T22:02:51.959Z,38.40
2018-11-21T22:05:20.550Z,39.00
2018-11-21T22:07:48.807Z,39.30
2018-11-21T22:10:18.100Z,38.40
2018-11-21T22:12:46.710Z,40.13
2018-11-21T22:15:32.899Z,38.40
2018-11-21T22:18:02.961Z,38.03
2018-11-21T22:20:31.290Z,38.17
2018-11-21T22:22:59.516Z,38.07
2018-11-21T22:25:27.769Z,38.20
2018-11-21T22:27:56.083Z,38.03
2018-11-21T22:30:24.576Z,38.70
2018-11-21T22:32:53.539Z,39.30
2018-11-21T22:35:25.025Z,38.53
2018-11-21T22:37:51.555Z,39.57
2018-11-21T22:40:20.229Z,39.13
2018-11-21T22:42:48.483Z,38.70
2018-11-21T22:45:17.847Z,37.53
2018-11-21T22:47:46.405Z,39.13
2018-11-21T22:50:16.277Z,39.30
2018-11-21T22:52:44.588Z,39.60
2018-11-21T22:55:13.712Z,37.97
2018-11-21T22:57:42.566Z,39.50
2018-11-21T23:00:19.189Z,38.93
2018-11-21T23:02:47.486Z,38.07
2018-11-21T23:05:15.697Z,37.70
2018-11-21T23:07:44.601Z,36.60
2018-11-21T23:10:14.076Z,39.13
2018-11-21T23:12:42.364Z,40.00
2018-11-21T23:15:11.495Z,38.90
2018-11-21T23:17:40.171Z,37.77
2018-11-21T23:20:10.377Z,39.40
2018-11-21T23:22:38.562Z,39.13
2018-11-21T23:25:08.229Z,37.63
2018-11-21T23:27:36.560Z,39.27
2018-11-21T23:30:06.780Z,37.67
2018-11-21T23:32:35.339Z,39.37
2018-11-21T23:35:03.567Z,39.73
2018-11-21T23:37:31.854Z,38.83
2018-11-21T23:40:00.099Z,37.67
2018-11-21T23:42:28.370Z,39.90
2018-11-21T23:44:56.628Z,37.20
2018-11-21T23:47:24.883Z,39.23
2018-11-21T23:49:53.103Z,39.70
2018-11-21T23:52:21.331Z,36.53
2018-11-21T23:54:49.725Z,39.70
2018-11-21T23:57:18.162Z,36.63
2018-11-21T23:59:46.238Z,39.57
